createdAt,value
2022-08-04T00:15:20.649Z,23.56
2022-08-04T00:35:20.607Z,23.56
2022-08-04T00:55:20.542Z,23.50
2022-08-04T01:15:20.498Z,23.50
2022-08-04T01:35:20.533Z,23.50
2022-08-04T01:55:20.483Z,23.43
2022-08-04T02:15:20.422Z,23.43
2022-08-04T02:35:20.467Z,23.43
2022-08-04T02:55:20.415Z,23.50
2022-08-04T03:15:20.361Z,23.50
2022-08-04T03:35:20.301Z,23.43
2022-08-04T03:55:20.340Z,23.31
2022-08-04T04:15:20.292Z,23.31
2022-08-04T04:35:20.232Z,23.25
2022-08-04T04:55:20.272Z,23.25
2022-08-04T05:15:20.212Z,23.25
2022-08-04T05:35:20.158Z,23.31
2022-08-04T05:55:20.213Z,23.31
2022-08-04T06:15:20.142Z,23.06
2022-08-04T06:35:20.090Z,23.25
2022-08-04T06:55:20.131Z,23.37
2022-08-04T07:15:20.075Z,23.31
2022-08-04T07:35:20.032Z,23.37
2022-08-04T07:55:19.981Z,23.37
2022-08-04T08:15:20.013Z,23.37
2022-08-04T08:35:19.955Z,23.56
2022-08-04T08:55:19.900Z,23.56
2022-08-04T09:15:19.855Z,23.62
2022-08-04T09:35:19.886Z,23.62
2022-08-04T09:55:19.843Z,23.68
2022-08-04T10:15:19.781Z,23.68
2022-08-04T10:35:19.765Z,23.81
2022-08-04T10:55:19.673Z,23.87
2022-08-04T11:15:19.719Z,24.06
2022-08-04T11:35:19.666Z,24.12
2022-08-04T11:55:19.618Z,24.18
2022-08-04T12:15:19.564Z,24.18
2022-08-04T12:35:19.612Z,24.25
2022-08-04T12:55:19.577Z,24.37
2022-08-04T13:15:19.537Z,24.68
2022-08-04T13:35:19.481Z,24.56
2022-08-04T13:55:19.431Z,24.68
2022-08-04T14:15:19.389Z,25.00
2022-08-04T14:35:19.348Z,24.93
2022-08-04T14:55:19.402Z,24.75
2022-08-04T15:15:19.365Z,24.87
2022-08-04T15:35:19.332Z,24.93
2022-08-04T15:55:19.290Z,24.93
2022-08-04T16:15:19.341Z,24.93
2022-08-04T16:35:19.237Z,24.87
2022-08-04T16:55:19.203Z,24.87
2022-08-04T17:15:19.174Z,24.93
2022-08-04T17:35:19.155Z,24.93
2022-08-04T17:55:19.052Z,24.87
2022-08-04T18:15:19.014Z,24.87
2022-08-04T18:35:18.985Z,24.93
2022-08-04T18:55:18.944Z,24.81
2022-08-04T19:15:19.005Z,24.93
2022-08-04T19:35:18.952Z,24.62
2022-08-04T19:55:18.938Z,24.75
2022-08-04T20:15:18.877Z,24.81
2022-08-04T20:35:18.817Z,24.81
2022-08-04T20:55:18.807Z,24.50
2022-08-04T21:15:18.845Z,24.68
2022-08-04T21:35:18.780Z,24.75
2022-08-04T21:55:18.733Z,24.37
2022-08-04T22:15:18.696Z,24.43
2022-08-04T22:35:18.639Z,24.62
2022-08-04T22:55:18.583Z,24.62
2022-08-04T23:15:18.662Z,24.37
2022-08-04T23:35:18.587Z,24.56
2022-08-04T23:55:18.563Z,24.25
